Observations de surface / UK / EGBB

Québec | Canada | États-Unis | France | UK | Europe | Ailleurs

Affichage: Infos & localisation pour EGBB | Aide pour décoder les METARs

EGBB BIRMINGHAM AIRPORT -- UK
Raw surface observations for station EGBB
EGBB 211720Z 09005KT 9000 SCT009 BKN024 03/02 Q1025=
EGBB 211650Z 08007KT 9000 SCT014 BKN029 03/03 Q1025=
EGBB 211620Z 08007KT 9999 SCT010 SCT030 03/03 Q1025=
EGBB 211550Z 07007KT 9999 SCT010 SCT025 03/03 Q1025=
EGBB 211520Z 08006KT 9000 FEW013 BKN023 03/03 Q1026=
EGBB 211450Z 07007KT 040V130 9999 FEW014 BKN020 03/02 Q1026=
EGBB 211420Z VRB07KT 9000 BKN017 03/02 Q1026=
EGBB 211350Z 08008G18KT 060V200 9999 BKN014 03/02 Q1026=
EGBB 211320Z 09009KT 9999 BKN009 OVC013 03/03 Q1027=
EGBB 211250Z 09009KT 9999 BKN010 03/03 Q1027=
EGBB 211220Z 09009KT 9999 BKN010 03/03 Q1027=
EGBB 211150Z 09008KT 6000 OVC009 02/02 Q1028=
EGBB 211120Z 09008KT 5000 BR BKN003 OVC006 02/02 Q1028=
EGBB 211050Z 08006KT 1400 R15/P1500 BR OVC002 02/02 Q1029=
EGBB 211020Z 09005KT 070V170 0200 R15/0800 FG OVC001 02/02 Q1029=
EGBB 210950Z 09006KT 030V140 0100 R15/0800 FG OVC001 01/01 Q1029=
EGBB 210920Z 06005G18KT 040V170 0100 R15/0550 FG OVC001 01/01 Q1029=
EGBB 210850Z 08005KT 0200 R15/0800 FG OVC001 00/00 Q1029=
EGBB 210820Z 08004KT 050V210 0400 R15/0900 FG OVC001 00/00 Q1029=
EGBB 210750Z VRB05KT 0500 FG OVC002 M00/M00 Q1029=
EGBB 210720Z 02004KT 340V090 8000 NSC M01/M01 Q1029=
EGBB 210650Z VRB02KT 9000 NSC M02/M02 Q1029=
EGBB 210620Z VRB02KT 9000 NSC M02/M02 Q1029=
EGBB 210550Z VRB02KT 9000 NSC M01/M01 Q1029=
EGBB 210520Z 01002KT CAVOK M01/M01 Q1029=
EGBB 210450Z 34003KT CAVOK M01/M01 Q1030=
EGBB 210420Z 33002KT CAVOK M01/M01 Q1030=
EGBB 210350Z 35003KT CAVOK M01/M01 Q1030=
EGBB 210320Z 01002KT CAVOK M01/M01 Q1030=
EGBB 210250Z VRB02KT CAVOK M01/M01 Q1030=
EGBB 210220Z 02003KT CAVOK M01/M01 Q1031=
EGBB 210150Z 36003KT CAVOK M01/M01 Q1031=
EGBB 210120Z 36003KT CAVOK M01/M01 Q1031=
EGBB 210050Z VRB02KT CAVOK M00/M01 Q1031=
EGBB 210020Z 05004KT CAVOK 00/M00 Q1031=
EGBB 202350Z VRB02KT CAVOK 00/M00 Q1031=
EGBB 202320Z 03004KT 310V070 CAVOK 01/00 Q1032=
EGBB 202250Z 05005KT CAVOK 01/00 Q1032=
EGBB 202220Z 06004KT 030V100 CAVOK 01/00 Q1032=
EGBB 202150Z 08004KT 050V120 CAVOK 02/00 Q1032=
EGBB 202120Z 08006KT CAVOK 02/01 Q1032=
EGBB 202050Z 07006KT CAVOK 02/01 Q1032=
EGBB 202020Z 07005KT 040V130 CAVOK 02/01 Q1032=
EGBB 201950Z 05004KT CAVOK 02/01 Q1032=
EGBB 201920Z 36004KT CAVOK 02/M00 Q1032=
EGBB 201850Z VRB03KT CAVOK 02/00 Q1032=
EGBB 201820Z 06004KT 360V170 CAVOK 03/00 Q1032=
EGBB 201750Z 06004KT CAVOK 03/00 Q1032=
EGBB 201720Z 06005KT 040V120 CAVOK 04/00 Q1032=